Private Wetterstation Sandau
Wetterdaten: Donnerstag, 12.07.2012
Datum Zeit Temp. A. Feuchte A. Luftdruck Regen Wind Richtung Richtung Taupunkt Windchill
12.07.2012 00:01 14,2 C 84 % 1011,3 hPa 0,0 l/m 6,1 km/h (2 Bft) SW 225 11,5 C 14,2 C
12.07.2012 00:06 14,2 C 84 % 1011,3 hPa 0,0 l/m 6,8 km/h (2 Bft) S-SW 202 11,5 C 14,2 C
12.07.2012 00:11 14,3 C 84 % 1011,3 hPa 0,0 l/m 15,8 km/h (3 Bft) SW 225 11,6 C 14,3 C
12.07.2012 00:16 14,3 C 84 % 1011,4 hPa 0,0 l/m 7,2 km/h (2 Bft) SW 225 11,6 C 14,3 C
12.07.2012 00:21 14,4 C 84 % 1011,5 hPa 0,0 l/m 2,5 km/h (1 Bft) S-SW 202 11,7 C 14,4 C
12.07.2012 00:26 14,4 C 84 % 1011,3 hPa 0,0 l/m 11,9 km/h (2 Bft) W 270 11,7 C 14,4 C
12.07.2012 00:31 14,4 C 84 % 1011,3 hPa 0,0 l/m 6,8 km/h (2 Bft) W-SW 247 11,7 C 14,4 C
12.07.2012 00:36 14,3 C 84 % 1011,3 hPa 0,0 l/m 5,8 km/h (2 Bft) W-SW 247 11,6 C 14,3 C
12.07.2012 00:41 14,2 C 84 % 1011,4 hPa 0,0 l/m 4,7 km/h (1 Bft) SW 225 11,5 C 14,2 C
12.07.2012 00:46 14,1 C 84 % 1011,3 hPa 0,0 l/m 9,0 km/h (2 Bft) S-SW 202 11,4 C 14,1 C
12.07.2012 00:51 14,1 C 84 % 1011,2 hPa 0,0 l/m 6,1 km/h (2 Bft) S 180 11,4 C 14,1 C
12.07.2012 00:56 14,1 C 84 % 1011,3 hPa 0,0 l/m 11,2 km/h (2 Bft) W-SW 247 11,4 C 14,1 C
12.07.2012 01:01 14,1 C 84 % 1011,3 hPa 0,0 l/m 8,6 km/h (2 Bft) SW 225 11,4 C 14,1 C
12.07.2012 01:06 14,1 C 84 % 1011,1 hPa 0,0 l/m 7,2 km/h (2 Bft) SW 225 11,4 C 14,1 C
12.07.2012 01:11 14,1 C 84 % 1011,1 hPa 0,0 l/m 6,5 km/h (2 Bft) SW 225 11,4 C 14,1 C
12.07.2012 01:16 14,1 C 84 % 1011,2 hPa 0,0 l/m 8,6 km/h (2 Bft) W-SW 247 11,4 C 14,1 C
12.07.2012 01:21 14,1 C 84 % 1011,3 hPa 0,0 l/m 10,1 km/h (2 Bft) W-SW 247 11,4 C 14,1 C
12.07.2012 01:26 14,1 C 84 % 1011,2 hPa 0,0 l/m 15,5 km/h (3 Bft) W-SW 247 11,4 C 14,1 C
12.07.2012 01:31 14,1 C 83 % 1011,1 hPa 0,0 l/m 13,7 km/h (3 Bft) W 270 11,3 C 14,1 C
12.07.2012 01:36 14,1 C 82 % 1011,2 hPa 0,0 l/m 8,6 km/h (2 Bft) W-SW 247 11,1 C 14,1 C
12.07.2012 01:41 14,0 C 82 % 1011,3 hPa 0,0 l/m 10,1 km/h (2 Bft) W 270 11,0 C 14,0 C
12.07.2012 01:46 13,9 C 82 % 1011,5 hPa 0,0 l/m 17,3 km/h (3 Bft) W-SW 247 10,9 C 13,9 C
12.07.2012 01:51 13,9 C 82 % 1011,5 hPa 0,0 l/m 9,4 km/h (2 Bft) SW 225 10,9 C 13,9 C
12.07.2012 01:56 13,8 C 81 % 1011,5 hPa 0,0 l/m 14,0 km/h (3 Bft) W 270 10,6 C 13,8 C
12.07.2012 02:01 13,8 C 81 % 1011,3 hPa 0,0 l/m 9,7 km/h (2 Bft) W-SW 247 10,6 C 13,8 C
12.07.2012 02:06 13,8 C 81 % 1011,3 hPa 0,0 l/m 7,2 km/h (2 Bft) S-SW 202 10,6 C 13,8 C
12.07.2012 02:11 13,6 C 81 % 1011,3 hPa 0,0 l/m 9,7 km/h (2 Bft) W 270 10,4 C 13,6 C
12.07.2012 02:16 13,6 C 80 % 1011,3 hPa 0,0 l/m 15,8 km/h (3 Bft) W-SW 247 10,2 C 13,6 C
12.07.2012 02:21 13,4 C 81 % 1011,4 hPa 0,0 l/m 7,6 km/h (2 Bft) W-SW 247 10,2 C 13,4 C
12.07.2012 02:26 13,4 C 81 % 1011,4 hPa 0,0 l/m 9,4 km/h (2 Bft) W-SW 247 10,2 C 13,4 C
12.07.2012 02:31 13,3 C 81 % 1011,3 hPa 0,0 l/m 6,1 km/h (2 Bft) W-SW 247 10,1 C 13,3 C
12.07.2012 02:36 13,1 C 81 % 1011,3 hPa 0,0 l/m 9,4 km/h (2 Bft) W-SW 247 9,9 C 13,1 C
12.07.2012 02:41 13,1 C 81 % 1011,3 hPa 0,0 l/m 6,5 km/h (2 Bft) W-SW 247 9,9 C 13,1 C
12.07.2012 02:46 12,9 C 81 % 1011,3 hPa 0,0 l/m 6,5 km/h (2 Bft) W-SW 247 9,7 C 12,9 C
12.07.2012 02:51 12,9 C 81 % 1011,3 hPa 0,0 l/m 15,5 km/h (3 Bft) W-SW 247 9,7 C 12,9 C
12.07.2012 02:56 12,9 C 81 % 1011,3 hPa 0,0 l/m 6,5 km/h (2 Bft) W-SW 247 9,7 C 12,9 C
12.07.2012 03:01 12,8 C 82 % 1011,1 hPa 0,0 l/m 6,1 km/h (2 Bft) W 270 9,8 C 12,8 C
12.07.2012 03:06 12,7 C 82 % 1011,1 hPa 0,0 l/m 5,4 km/h (1 Bft) W-SW 247 9,7 C 12,7 C
12.07.2012 03:11 12,6 C 82 % 1011,1 hPa 0,0 l/m 11,9 km/h (2 Bft) W-SW 247 9,6 C 12,6 C
12.07.2012 03:16 12,6 C 82 % 1011,1 hPa 0,0 l/m 6,5 km/h (2 Bft) SW 225 9,6 C 12,6 C
12.07.2012 03:21 12,5 C 83 % 1011,1 hPa 0,0 l/m 8,6 km/h (2 Bft) W-SW 247 9,7 C 12,5 C
12.07.2012 03:26 12,4 C 83 % 1011,1 hPa 0,0 l/m 6,1 km/h (2 Bft) SW 225 9,6 C 12,4 C
12.07.2012 03:31 12,3 C 83 % 1011,1 hPa 0,0 l/m 4,7 km/h (1 Bft) W-SW 247 9,5 C 12,3 C
12.07.2012 03:36 12,3 C 83 % 1011,1 hPa 0,0 l/m 5,0 km/h (1 Bft) S-SW 202 9,5 C 12,3 C
12.07.2012 03:41 12,2 C 83 % 1011,2 hPa 0,0 l/m 3,2 km/h (1 Bft) SW 225 9,4 C 12,2 C
12.07.2012 03:46 12,2 C 83 % 1011,0 hPa 0,0 l/m 10,1 km/h (2 Bft) W-SW 247 9,4 C 12,2 C
12.07.2012 03:51 12,1 C 84 % 1011,0 hPa 0,0 l/m 7,2 km/h (2 Bft) W-SW 247 9,5 C 12,1 C
12.07.2012 03:56 12,1 C 84 % 1011,2 hPa 0,0 l/m 6,5 km/h (2 Bft) W-SW 247 9,5 C 12,1 C
12.07.2012 04:01 12,0 C 84 % 1011,2 hPa 0,0 l/m 6,8 km/h (2 Bft) SW 225 9,4 C 12,0 C
12.07.2012 04:06 11,9 C 84 % 1011,2 hPa 0,0 l/m 4,0 km/h (1 Bft) SW 225 9,3 C 11,9 C
12.07.2012 04:11 11,9 C 84 % 1011,2 hPa 0,0 l/m 10,1 km/h (2 Bft) W-SW 247 9,3 C 11,9 C
12.07.2012 04:16 11,9 C 84 % 1011,2 hPa 0,0 l/m 6,8 km/h (2 Bft) SW 225 9,3 C 11,9 C
12.07.2012 04:21 11,9 C 84 % 1011,0 hPa 0,0 l/m 12,6 km/h (3 Bft) S-SW 202 9,3 C 11,9 C
12.07.2012 04:26 11,9 C 84 % 1011,0 hPa 0,0 l/m 10,8 km/h (2 Bft) W 270 9,3 C 11,9 C
12.07.2012 04:31 11,8 C 84 % 1011,0 hPa 0,0 l/m 10,8 km/h (2 Bft) W-SW 247 9,2 C 11,8 C
12.07.2012 04:36 11,8 C 84 % 1011,0 hPa 0,0 l/m 5,8 km/h (2 Bft) W 270 9,2 C 11,8 C
12.07.2012 04:41 11,8 C 84 % 1010,9 hPa 0,0 l/m 6,8 km/h (2 Bft) W-SW 247 9,2 C 11,8 C
12.07.2012 04:46 11,8 C 84 % 1011,1 hPa 0,0 l/m 7,2 km/h (2 Bft) W-SW 247 9,2 C 11,8 C
12.07.2012 04:51 11,6 C 84 % 1010,9 hPa 0,0 l/m 9,0 km/h (2 Bft) SW 225 9,0 C 11,6 C
12.07.2012 04:56 11,7 C 84 % 1010,9 hPa 0,0 l/m 7,2 km/h (2 Bft) SW 225 9,1 C 11,7 C
12.07.2012 05:01 11,6 C 84 % 1011,0 hPa 0,0 l/m 5,0 km/h (1 Bft) W-SW 247 9,0 C 11,6 C
12.07.2012 05:06 11,6 C 85 % 1011,1 hPa 0,0 l/m 7,2 km/h (2 Bft) S-SW 202 9,2 C 11,6 C
12.07.2012 05:11 11,8 C 84 % 1011,1 hPa 0,0 l/m 5,8 km/h (2 Bft) SW 225 9,2 C 11,8 C
12.07.2012 05:16 11,9 C 84 % 1011,1 hPa 0,0 l/m 5,8 km/h (2 Bft) W-SW 247 9,3 C 11,9 C
12.07.2012 05:21 11,9 C 84 % 1011,2 hPa 0,0 l/m 7,2 km/h (2 Bft) S-SW 202 9,3 C 11,9 C
12.07.2012 05:26 12,1 C 84 % 1011,3 hPa 0,0 l/m 4,3 km/h (1 Bft) S 180 9,5 C 12,1 C
12.07.2012 05:31 12,2 C 84 % 1011,3 hPa 0,0 l/m 7,6 km/h (2 Bft) SW 225 9,6 C 12,2 C
12.07.2012 05:36 12,3 C 84 % 1011,4 hPa 0,0 l/m 9,4 km/h (2 Bft) SW 225 9,7 C 12,3 C
12.07.2012 05:41 12,4 C 83 % 1011,4 hPa 0,0 l/m 10,4 km/h (2 Bft) S-SW 202 9,6 C 12,4 C
12.07.2012 05:46 12,8 C 83 % 1011,4 hPa 0,0 l/m 5,0 km/h (1 Bft) S-SW 202 10,0 C 12,8 C
12.07.2012 05:51 13,1 C 81 % 1011,5 hPa 0,0 l/m 5,0 km/h (1 Bft) S-SW 202 9,9 C 13,1 C
12.07.2012 05:56 12,9 C 81 % 1011,6 hPa 0,0 l/m 5,8 km/h (2 Bft) S-SW 202 9,7 C 12,9 C
12.07.2012 06:01 12,8 C 82 % 1011,3 hPa 0,0 l/m 3,2 km/h (1 Bft) S-SW 202 9,8 C 12,8 C
12.07.2012 06:06 12,8 C 82 % 1011,4 hPa 0,0 l/m 7,6 km/h (2 Bft) S-SO 157 9,8 C 12,8 C
12.07.2012 06:11 13,1 C 81 % 1011,3 hPa 0,0 l/m 6,1 km/h (2 Bft) SW 225 9,9 C 13,1 C
12.07.2012 06:16 13,1 C 81 % 1011,4 hPa 0,0 l/m 5,4 km/h (1 Bft) S-SW 202 9,9 C 13,1 C
12.07.2012 06:21 14,3 C 81 % 1011,3 hPa 0,0 l/m 9,4 km/h (2 Bft) S-SW 202 11,1 C 14,3 C
12.07.2012 06:26 16,9 C 75 % 1011,4 hPa 0,0 l/m 4,7 km/h (1 Bft) W-SW 247 12,4 C 16,9 C
12.07.2012 06:31 18,1 C 70 % 1011,4 hPa 0,0 l/m 7,6 km/h (2 Bft) S-SW 202 12,5 C 18,1 C
12.07.2012 06:36 16,2 C 70 % 1011,3 hPa 0,0 l/m 6,5 km/h (2 Bft) SW 225 10,7 C 16,2 C
12.07.2012 06:41 14,8 C 73 % 1011,3 hPa 0,0 l/m 3,2 km/h (1 Bft) SW 225 10,0 C 14,8 C
12.07.2012 06:46 14,3 C 75 % 1011,4 hPa 0,0 l/m 13,0 km/h (3 Bft) W-SW 247 9,9 C 14,3 C
12.07.2012 06:51 14,2 C 76 % 1011,3 hPa 0,0 l/m 7,2 km/h (2 Bft) W-SW 247 10,0 C 14,2 C
12.07.2012 06:56 14,2 C 77 % 1011,3 hPa 0,0 l/m 9,0 km/h (2 Bft) S-SO 157 10,2 C 14,2 C
12.07.2012 07:01 14,9 C 75 % 1011,3 hPa 0,0 l/m 6,1 km/h (2 Bft) SW 225 10,5 C 14,9 C
12.07.2012 07:06 14,6 C 76 % 1011,2 hPa 0,0 l/m 7,9 km/h (2 Bft) SW 225 10,4 C 14,6 C
12.07.2012 07:11 14,2 C 76 % 1011,2 hPa 0,0 l/m 5,0 km/h (1 Bft) W-SW 247 10,0 C 14,2 C
12.07.2012 07:16 14,0 C 77 % 1011,4 hPa 0,0 l/m 14,4 km/h (3 Bft) W-SW 247 10,0 C 14,0 C
12.07.2012 07:21 13,9 C 78 % 1011,4 hPa 0,0 l/m 3,6 km/h (1 Bft) W-SW 247 10,1 C 13,9 C
12.07.2012 07:26 14,1 C 78 % 1011,4 hPa 0,0 l/m 14,4 km/h (3 Bft) W-SW 247 10,3 C 14,1 C
12.07.2012 07:31 14,1 C 78 % 1011,3 hPa 0,0 l/m 7,2 km/h (2 Bft) S-SW 202 10,3 C 14,1 C
12.07.2012 07:36 14,1 C 77 % 1011,3 hPa 0,0 l/m 6,1 km/h (2 Bft) W-SW 247 10,1 C 14,1 C
12.07.2012 07:41 14,2 C 77 % 1011,1 hPa 0,0 l/m 7,6 km/h (2 Bft) SW 225 10,2 C 14,2 C
12.07.2012 07:46 14,3 C 77 % 1011,3 hPa 0,0 l/m 13,0 km/h (3 Bft) W-SW 247 10,3 C 14,3 C
12.07.2012 07:51 14,3 C 77 % 1011,2 hPa 0,0 l/m 10,8 km/h (2 Bft) W-SW 247 10,3 C 14,3 C
12.07.2012 07:56 14,9 C 77 % 1011,4 hPa 0,0 l/m 7,2 km/h (2 Bft) W-SW 247 10,9 C 14,9 C
12.07.2012 08:01 16,5 C 74 % 1011,2 hPa 0,0 l/m 5,0 km/h (1 Bft) SO 135 11,8 C 16,5 C
12.07.2012 08:06 16,5 C 72 % 1011,2 hPa 0,0 l/m 6,8 km/h (2 Bft) S-SW 202 11,4 C 16,5 C
12.07.2012 08:11 16,8 C 71 % 1011,3 hPa 0,0 l/m 8,6 km/h (2 Bft) S-SW 202 11,5 C 16,8 C
12.07.2012 08:16 17,2 C 69 % 1011,3 hPa 0,0 l/m 9,0 km/h (2 Bft) SW 225 11,5 C 17,2 C
12.07.2012 08:21 16,9 C 69 % 1011,3 hPa 0,0 l/m 19,4 km/h (3 Bft) W 270 11,2 C 16,9 C
12.07.2012 08:26 16,9 C 69 % 1011,3 hPa 0,0 l/m 13,7 km/h (3 Bft) SW 225 11,2 C 16,9 C
12.07.2012 08:31 17,3 C 69 % 1011,3 hPa 0,0 l/m 14,8 km/h (3 Bft) SW 225 11,6 C 17,3 C
12.07.2012 08:36 17,5 C 67 % 1011,3 hPa 0,0 l/m 10,1 km/h (2 Bft) W 270 11,3 C 17,5 C
12.07.2012 08:41 17,2 C 68 % 1011,3 hPa 0,0 l/m 14,4 km/h (3 Bft) S-SW 202 11,2 C 17,2 C
12.07.2012 08:46 16,7 C 69 % 1011,3 hPa 0,0 l/m 21,6 km/h (4 Bft) W-NW 292 11,0 C 16,7 C
12.07.2012 08:51 16,8 C 70 % 1011,3 hPa 0,0 l/m 29,5 km/h (5 Bft) W-SW 247 11,3 C 16,8 C
12.07.2012 08:56 16,5 C 69 % 1011,2 hPa 0,0 l/m 21,6 km/h (4 Bft) S-SW 202 10,8 C 16,5 C
12.07.2012 09:01 16,2 C 70 % 1011,3 hPa 0,0 l/m 14,8 km/h (3 Bft) S-SW 202 10,7 C 16,2 C
12.07.2012 09:06 16,0 C 70 % 1011,3 hPa 0,0 l/m 20,2 km/h (4 Bft) W-SW 247 10,5 C 16,0 C
12.07.2012 09:11 16,8 C 69 % 1011,3 hPa 0,0 l/m 5,0 km/h (1 Bft) W-NW 292 11,1 C 16,8 C
12.07.2012 09:16 16,7 C 68 % 1011,2 hPa 0,0 l/m 14,8 km/h (3 Bft) S-SW 202 10,8 C 16,7 C
12.07.2012 09:21 16,6 C 67 % 1011,0 hPa 0,0 l/m 19,1 km/h (3 Bft) W-SW 247 10,4 C 16,6 C
12.07.2012 09:26 16,6 C 67 % 1010,9 hPa 0,0 l/m 19,1 km/h (3 Bft) W-SW 247 10,4 C 16,6 C
12.07.2012 09:31 16,8 C 69 % 1010,9 hPa 0,0 l/m 32,4 km/h (5 Bft) W-SW 247 11,1 C 16,8 C
12.07.2012 09:36 17,6 C 67 % 1010,9 hPa 0,0 l/m 17,3 km/h (3 Bft) S-SW 202 11,4 C 17,6 C
12.07.2012 09:41 17,3 C 64 % 1010,9 hPa 0,0 l/m 16,6 km/h (3 Bft) W-SW 247 10,4 C 17,3 C
12.07.2012 09:46 16,9 C 66 % 1010,9 hPa 0,0 l/m 15,8 km/h (3 Bft) W 270 10,5 C 16,9 C
12.07.2012 09:51 17,5 C 64 % 1010,9 hPa 0,0 l/m 19,4 km/h (3 Bft) S-SW 202 10,6 C 17,5 C
12.07.2012 09:56 17,9 C 63 % 1010,8 hPa 0,0 l/m 24,8 km/h (4 Bft) W-SW 247 10,8 C 17,9 C
12.07.2012 10:01 18,2 C 62 % 1010,7 hPa 0,0 l/m 21,2 km/h (4 Bft) W-SW 247 10,8 C 18,2 C
12.07.2012 10:06 17,9 C 63 % 1010,9 hPa 0,0 l/m 18,4 km/h (3 Bft) SW 225 10,8 C 17,9 C
12.07.2012 10:11 17,9 C 63 % 1010,8 hPa 0,0 l/m 16,9 km/h (3 Bft) W 270 10,8 C 17,9 C
12.07.2012 10:16 17,6 C 64 % 1010,7 hPa 0,0 l/m 30,2 km/h (5 Bft) W-SW 247 10,7 C 17,6 C
12.07.2012 10:21 16,9 C 65 % 1010,8 hPa 0,0 l/m 23,0 km/h (4 Bft) W-SW 247 10,3 C 16,9 C
12.07.2012 10:26 16,8 C 66 % 1010,7 hPa 0,0 l/m 14,8 km/h (3 Bft) W 270 10,4 C 16,8 C
12.07.2012 10:31 17,4 C 64 % 1010,6 hPa 0,0 l/m 11,5 km/h (2 Bft) W-SW 247 10,5 C 17,4 C
12.07.2012 10:36 16,7 C 64 % 1010,9 hPa 0,0 l/m 11,5 km/h (2 Bft) W 270 9,9 C 16,7 C
12.07.2012 10:41 16,3 C 66 % 1010,7 hPa 0,0 l/m 20,5 km/h (4 Bft) SW 225 9,9 C 16,3 C
12.07.2012 10:46 16,8 C 67 % 1010,7 hPa 0,0 l/m 20,5 km/h (4 Bft) W-SW 247 10,6 C 16,8 C
12.07.2012 10:51 17,1 C 67 % 1010,8 hPa 0,0 l/m 14,0 km/h (3 Bft) W-NW 292 10,9 C 17,1 C
12.07.2012 10:56 16,5 C 69 % 1010,8 hPa 0,0 l/m 27,7 km/h (4 Bft) W 270 10,8 C 16,5 C
12.07.2012 11:01 16,2 C 69 % 1010,9 hPa 0,0 l/m 20,9 km/h (4 Bft) W 270 10,5 C 16,2 C
12.07.2012 11:06 16,7 C 70 % 1010,7 hPa 0,0 l/m 14,8 km/h (3 Bft) W 270 11,2 C 16,7 C
12.07.2012 11:11 17,4 C 67 % 1010,6 hPa 0,0 l/m 6,5 km/h (2 Bft) S 180 11,2 C 17,4 C
12.07.2012 11:16 17,7 C 65 % 1010,5 hPa 0,0 l/m 14,8 km/h (3 Bft) W 270 11,0 C 17,7 C
12.07.2012 11:21 17,4 C 65 % 1010,6 hPa 0,0 l/m 28,4 km/h (4 Bft) W-SW 247 10,8 C 17,4 C
12.07.2012 11:26 17,9 C 66 % 1010,8 hPa 0,0 l/m 18,0 km/h (3 Bft) W-SW 247 11,5 C 17,9 C
12.07.2012 11:31 18,6 C 62 % 1010,7 hPa 0,0 l/m 23,4 km/h (4 Bft) W 270 11,2 C 18,6 C
12.07.2012 11:36 18,8 C 61 % 1010,5 hPa 0,0 l/m 19,8 km/h (3 Bft) W 270 11,1 C 18,8 C
12.07.2012 11:41 18,8 C 62 % 1010,4 hPa 0,0 l/m 11,2 km/h (2 Bft) SW 225 11,4 C 18,8 C
12.07.2012 11:46 19,5 C 61 % 1010,4 hPa 0,0 l/m 2,9 km/h (1 Bft) S-SW 202 11,8 C 19,5 C
12.07.2012 11:51 19,4 C 56 % 1010,3 hPa 0,0 l/m 18,0 km/h (3 Bft) W-SW 247 10,4 C 19,4 C
12.07.2012 11:56 19,6 C 56 % 1010,2 hPa 0,0 l/m 18,0 km/h (3 Bft) W-SW 247 10,6 C 19,6 C
12.07.2012 12:01 19,9 C 55 % 1010,3 hPa 0,0 l/m 24,1 km/h (4 Bft) W-SW 247 10,6 C 19,9 C
12.07.2012 12:06 20,3 C 53 % 1010,2 hPa 0,0 l/m 19,1 km/h (3 Bft) S-SW 202 10,4 C 20,3 C
12.07.2012 12:11 20,7 C 51 % 1010,1 hPa 0,0 l/m 11,9 km/h (2 Bft) W-SW 247 10,2 C 20,7 C
12.07.2012 12:16 20,9 C 51 % 1010,2 hPa 0,0 l/m 20,2 km/h (4 Bft) W-NW 292 10,4 C 20,9 C
12.07.2012 12:21 20,3 C 51 % 1010,3 hPa 0,0 l/m 25,2 km/h (4 Bft) W 270 9,8 C 20,3 C
12.07.2012 12:26 18,6 C 52 % 1010,8 hPa 0,0 l/m 15,8 km/h (3 Bft) W 270 8,5 C 18,6 C
12.07.2012 12:31 17,8 C 57 % 1010,7 hPa 0,0 l/m 17,3 km/h (3 Bft) W 270 9,2 C 17,8 C
12.07.2012 12:36 16,9 C 64 % 1010,7 hPa 0,0 l/m 22,7 km/h (4 Bft) W 270 10,0 C 16,9 C
12.07.2012 12:41 16,3 C 65 % 1010,6 hPa 0,0 l/m 18,0 km/h (3 Bft) W-SW 247 9,7 C 16,3 C
12.07.2012 12:46 15,8 C 67 % 1010,9 hPa 0,0 l/m 13,7 km/h (3 Bft) W 270 9,7 C 15,8 C
12.07.2012 12:51 15,6 C 69 % 1010,9 hPa 0,0 l/m 11,5 km/h (2 Bft) W-NW 292 9,9 C 15,6 C
12.07.2012 12:56 15,5 C 70 % 1010,9 hPa 0,0 l/m 21,2 km/h (4 Bft) W 270 10,1 C 15,5 C
12.07.2012 13:01 15,4 C 70 % 1010,8 hPa 0,0 l/m 26,3 km/h (4 Bft) W-SW 247 10,0 C 15,4 C
12.07.2012 13:06 15,1 C 70 % 1010,8 hPa 0,0 l/m 31,7 km/h (5 Bft) W-SW 247 9,7 C 15,1 C
12.07.2012 13:11 14,7 C 73 % 1011,1 hPa 0,5 l/m 22,3 km/h (4 Bft) W-SW 247 9,9 C 14,7 C
12.07.2012 13:16 14,1 C 74 % 1011,1 hPa 0,0 l/m 20,9 km/h (4 Bft) SW 225 9,5 C 14,1 C
12.07.2012 13:21 13,8 C 76 % 1011,0 hPa 0,0 l/m 18,0 km/h (3 Bft) W-SW 247 9,6 C 13,8 C
12.07.2012 13:26 13,6 C 78 % 1011,0 hPa 0,5 l/m 30,6 km/h (5 Bft) W 270 9,8 C 13,6 C
12.07.2012 13:31 13,4 C 78 % 1011,1 hPa 0,0 l/m 15,1 km/h (3 Bft) W-SW 247 9,6 C 13,4 C
12.07.2012 13:36 13,4 C 79 % 1011,1 hPa 0,5 l/m 18,4 km/h (3 Bft) W-SW 247 9,8 C 13,4 C
12.07.2012 13:41 13,4 C 80 % 1011,2 hPa 0,0 l/m 16,9 km/h (3 Bft) W 270 10,0 C 13,4 C
12.07.2012 13:46 13,3 C 80 % 1011,2 hPa 0,0 l/m 8,6 km/h (2 Bft) W-SW 247 9,9 C 13,3 C
12.07.2012 13:51 13,4 C 80 % 1011,3 hPa 0,0 l/m 9,4 km/h (2 Bft) W 270 10,0 C 13,4 C
12.07.2012 13:56 13,8 C 80 % 1011,2 hPa 0,0 l/m 6,1 km/h (2 Bft) W-SW 247 10,4 C 13,8 C
12.07.2012 14:01 14,1 C 80 % 1011,2 hPa 0,0 l/m 19,4 km/h (3 Bft) W 270 10,7 C 14,1 C
12.07.2012 14:06 14,6 C 79 % 1011,1 hPa 0,0 l/m 4,0 km/h (1 Bft) S-SW 202 11,0 C 14,6 C
12.07.2012 14:11 14,9 C 79 % 1011,0 hPa 0,0 l/m 8,3 km/h (2 Bft) W-SW 247 11,3 C 14,9 C
12.07.2012 14:16 15,1 C 78 % 1011,0 hPa 0,0 l/m 12,2 km/h (2 Bft) NW 315 11,3 C 15,1 C
12.07.2012 14:21 15,3 C 78 % 1010,9 hPa 0,0 l/m 8,3 km/h (2 Bft) NW 315 11,5 C 15,3 C
12.07.2012 14:26 15,9 C 77 % 1010,5 hPa 0,0 l/m 12,2 km/h (2 Bft) W 270 11,9 C 15,9 C
12.07.2012 14:31 16,8 C 74 % 1010,6 hPa 0,0 l/m 15,8 km/h (3 Bft) W-SW 247 12,1 C 16,8 C
12.07.2012 14:36 17,1 C 71 % 1010,6 hPa 0,0 l/m 6,1 km/h (2 Bft) N-NW 337 11,8 C 17,1 C
12.07.2012 14:41 17,3 C 71 % 1010,6 hPa 0,0 l/m 15,8 km/h (3 Bft) W-SW 247 12,0 C 17,3 C
12.07.2012 14:46 18,4 C 70 % 1010,5 hPa 0,0 l/m 5,8 km/h (2 Bft) N-NW 337 12,8 C 18,4 C
12.07.2012 14:51 18,4 C 68 % 1010,5 hPa 0,0 l/m 16,6 km/h (3 Bft) W-SW 247 12,4 C 18,4 C
12.07.2012 14:56 17,6 C 69 % 1010,7 hPa 0,0 l/m 14,0 km/h (3 Bft) SW 225 11,8 C 17,6 C
12.07.2012 15:01 17,2 C 69 % 1010,7 hPa 0,0 l/m 16,2 km/h (3 Bft) S-SW 202 11,5 C 17,2 C
12.07.2012 15:06 17,3 C 69 % 1010,7 hPa 0,0 l/m 14,8 km/h (3 Bft) S-SW 202 11,6 C 17,3 C
12.07.2012 15:11 17,1 C 68 % 1010,7 hPa 0,0 l/m 13,7 km/h (3 Bft) S-SW 202 11,1 C 17,1 C
12.07.2012 15:16 17,1 C 69 % 1010,7 hPa 0,0 l/m 22,0 km/h (4 Bft) SW 225 11,4 C 17,1 C
12.07.2012 15:21 17,0 C 70 % 1010,6 hPa 0,0 l/m 10,1 km/h (2 Bft) W-SW 247 11,5 C 17,0 C
12.07.2012 15:26 17,2 C 69 % 1010,7 hPa 0,0 l/m 10,8 km/h (2 Bft) SW 225 11,5 C 17,2 C
12.07.2012 15:31 17,3 C 69 % 1010,6 hPa 0,0 l/m 14,4 km/h (3 Bft) W-SW 247 11,6 C 17,3 C
12.07.2012 15:36 17,6 C 68 % 1010,7 hPa 0,0 l/m 12,2 km/h (2 Bft) W-SW 247 11,6 C 17,6 C
12.07.2012 15:41 17,4 C 68 % 1010,5 hPa 0,0 l/m 12,2 km/h (2 Bft) W-SW 247 11,4 C 17,4 C
12.07.2012 15:46 17,5 C 68 % 1010,5 hPa 0,0 l/m 16,9 km/h (3 Bft) W-SW 247 11,5 C 17,5 C
12.07.2012 15:51 17,6 C 68 % 1010,6 hPa 0,0 l/m 4,0 km/h (1 Bft) SW 225 11,6 C 17,6 C
12.07.2012 15:56 17,8 C 66 % 1010,7 hPa 0,0 l/m 10,8 km/h (2 Bft) S-SW 202 11,4 C 17,8 C
12.07.2012 16:01 17,8 C 65 % 1010,6 hPa 0,0 l/m 7,2 km/h (2 Bft) S-SW 202 11,1 C 17,8 C
12.07.2012 16:06 18,3 C 66 % 1010,6 hPa 0,0 l/m 26,3 km/h (4 Bft) W-SW 247 11,8 C 18,3 C
12.07.2012 16:11 18,3 C 66 % 1010,7 hPa 0,0 l/m 10,4 km/h (2 Bft) W 270 11,8 C 18,3 C
12.07.2012 16:16 18,5 C 66 % 1010,8 hPa 0,0 l/m 4,7 km/h (1 Bft) S-SW 202 12,0 C 18,5 C
12.07.2012 16:21 18,8 C 66 % 1010,8 hPa 0,0 l/m 16,9 km/h (3 Bft) S-SW 202 12,3 C 18,8 C
12.07.2012 16:26 18,3 C 66 % 1010,8 hPa 0,0 l/m 14,0 km/h (3 Bft) W 270 11,8 C 18,3 C
12.07.2012 16:31 17,8 C 66 % 1010,7 hPa 0,0 l/m 3,2 km/h (1 Bft) S-SO 157 11,4 C 17,8 C
12.07.2012 16:36 17,6 C 67 % 1010,8 hPa 0,0 l/m 18,7 km/h (3 Bft) W 270 11,4 C 17,6 C
12.07.2012 16:41 17,6 C 67 % 1010,7 hPa 0,0 l/m 7,6 km/h (2 Bft) S-SW 202 11,4 C 17,6 C
12.07.2012 16:46 17,6 C 67 % 1010,8 hPa 0,0 l/m 15,5 km/h (3 Bft) W 270 11,4 C 17,6 C
12.07.2012 16:51 17,8 C 67 % 1010,8 hPa 0,0 l/m 13,7 km/h (3 Bft) W 270 11,6 C 17,8 C
12.07.2012 16:56 17,9 C 67 % 1010,8 hPa 0,0 l/m 14,0 km/h (3 Bft) W-SW 247 11,7 C 17,9 C
12.07.2012 17:01 17,8 C 67 % 1010,8 hPa 0,0 l/m 9,4 km/h (2 Bft) W-SW 247 11,6 C 17,8 C
12.07.2012 17:06 18,1 C 67 % 1010,9 hPa 0,0 l/m 12,6 km/h (3 Bft) W-SW 247 11,9 C 18,1 C
12.07.2012 17:11 18,7 C 65 % 1010,9 hPa 0,0 l/m 20,2 km/h (4 Bft) W-SW 247 12,0 C 18,7 C
12.07.2012 17:16 18,8 C 63 % 1010,9 hPa 0,0 l/m 17,6 km/h (3 Bft) W-SW 247 11,6 C 18,8 C
12.07.2012 17:21 18,1 C 65 % 1011,0 hPa 0,0 l/m 8,6 km/h (2 Bft) W-SW 247 11,4 C 18,1 C
12.07.2012 17:26 17,9 C 65 % 1011,0 hPa 0,0 l/m 11,2 km/h (2 Bft) W-SW 247 11,2 C 17,9 C
12.07.2012 17:31 18,1 C 65 % 1011,1 hPa 0,0 l/m 15,5 km/h (3 Bft) W 270 11,4 C 18,1 C
12.07.2012 17:36 17,8 C 65 % 1011,1 hPa 0,0 l/m 13,3 km/h (3 Bft) W-SW 247 11,1 C 17,8 C
12.07.2012 17:41 17,9 C 65 % 1010,9 hPa 0,0 l/m 5,8 km/h (2 Bft) W-SW 247 11,2 C 17,9 C
12.07.2012 17:46 18,8 C 62 % 1010,9 hPa 0,0 l/m 10,8 km/h (2 Bft) SW 225 11,4 C 18,8 C
12.07.2012 17:51 19,0 C 61 % 1010,9 hPa 0,0 l/m 15,8 km/h (3 Bft) W 270 11,3 C 19,0 C
12.07.2012 17:56 19,4 C 58 % 1011,0 hPa 0,0 l/m 6,5 km/h (2 Bft) S 180 10,9 C 19,4 C
12.07.2012 18:01 19,4 C 58 % 1011,0 hPa 0,0 l/m 13,3 km/h (3 Bft) W-NW 292 10,9 C 19,4 C
12.07.2012 18:06 19,5 C 59 % 1011,0 hPa 0,0 l/m 10,1 km/h (2 Bft) W-SW 247 11,3 C 19,5 C
12.07.2012 18:11 19,5 C 59 % 1011,1 hPa 0,0 l/m 14,4 km/h (3 Bft) W 270 11,3 C 19,5 C
12.07.2012 18:16 19,8 C 59 % 1011,1 hPa 0,0 l/m 15,1 km/h (3 Bft) W 270 11,6 C 19,8 C
12.07.2012 18:21 19,9 C 57 % 1011,0 hPa 0,0 l/m 8,3 km/h (2 Bft) W-NW 292 11,1 C 19,9 C
12.07.2012 18:26 19,8 C 56 % 1011,1 hPa 0,0 l/m 6,1 km/h (2 Bft) W-NW 292 10,8 C 19,8 C
12.07.2012 18:31 18,9 C 54 % 1011,1 hPa 0,0 l/m 25,9 km/h (4 Bft) W-SW 247 9,4 C 18,9 C
12.07.2012 18:36 18,8 C 57 % 1011,2 hPa 0,0 l/m 14,8 km/h (3 Bft) W 270 10,1 C 18,8 C
12.07.2012 18:41 18,9 C 56 % 1011,2 hPa 0,0 l/m 16,2 km/h (3 Bft) W-NW 292 9,9 C 18,9 C
12.07.2012 18:46 18,9 C 56 % 1011,5 hPa 0,0 l/m 6,8 km/h (2 Bft) W 270 9,9 C 18,9 C
12.07.2012 18:51 19,3 C 56 % 1011,7 hPa 0,0 l/m 4,7 km/h (1 Bft) W 270 10,3 C 19,3 C
12.07.2012 18:56 19,4 C 50 % 1011,7 hPa 0,0 l/m 19,4 km/h (3 Bft) W-NW 292 8,7 C 19,4 C
12.07.2012 19:01 19,2 C 50 % 1011,8 hPa 0,0 l/m 22,0 km/h (4 Bft) W-SW 247 8,5 C 19,2 C
12.07.2012 19:06 19,1 C 51 % 1011,8 hPa 0,0 l/m 9,4 km/h (2 Bft) W-NW 292 8,7 C 19,1 C
12.07.2012 19:11 18,9 C 52 % 1012,0 hPa 0,0 l/m 20,5 km/h (4 Bft) W-NW 292 8,8 C 18,9 C
12.07.2012 19:16 18,6 C 53 % 1012,0 hPa 0,0 l/m 7,6 km/h (2 Bft) W-SW 247 8,8 C 18,6 C
12.07.2012 19:21 18,1 C 55 % 1012,0 hPa 0,0 l/m 9,7 km/h (2 Bft) W 270 8,9 C 18,1 C
12.07.2012 19:26 17,8 C 57 % 1012,1 hPa 0,0 l/m 6,8 km/h (2 Bft) NW 315 9,2 C 17,8 C
12.07.2012 19:31 17,9 C 57 % 1012,1 hPa 0,0 l/m 6,1 km/h (2 Bft) W-SW 247 9,3 C 17,9 C
12.07.2012 19:36 17,9 C 58 % 1012,1 hPa 0,0 l/m 13,3 km/h (3 Bft) W-SW 247 9,5 C 17,9 C
12.07.2012 19:41 18,1 C 58 % 1012,2 hPa 0,0 l/m 8,3 km/h (2 Bft) S-SW 202 9,7 C 18,1 C
12.07.2012 19:46 18,7 C 56 % 1012,2 hPa 0,0 l/m 20,2 km/h (4 Bft) W-NW 292 9,7 C 18,7 C
12.07.2012 19:51 19,0 C 55 % 1012,3 hPa 0,0 l/m 14,0 km/h (3 Bft) W-NW 292 9,8 C 19,0 C
12.07.2012 19:56 18,9 C 56 % 1012,3 hPa 0,0 l/m 12,6 km/h (3 Bft) W 270 9,9 C 18,9 C
12.07.2012 20:01 18,6 C 57 % 1012,2 hPa 0,0 l/m 20,2 km/h (4 Bft) W-SW 247 9,9 C 18,6 C
12.07.2012 20:06 17,9 C 58 % 1012,1 hPa 0,0 l/m 12,6 km/h (3 Bft) S-SW 202 9,5 C 17,9 C
12.07.2012 20:11 17,1 C 60 % 1012,2 hPa 0,0 l/m 23,0 km/h (4 Bft) W-SW 247 9,3 C 17,1 C
12.07.2012 20:16 16,5 C 62 % 1012,3 hPa 0,0 l/m 8,3 km/h (2 Bft) W 270 9,2 C 16,5 C
12.07.2012 20:21 16,1 C 63 % 1012,5 hPa 0,0 l/m 21,6 km/h (4 Bft) W-SW 247 9,1 C 16,1 C
12.07.2012 20:26 16,1 C 64 % 1012,3 hPa 0,0 l/m 20,2 km/h (4 Bft) W-SW 247 9,3 C 16,1 C
12.07.2012 20:31 15,9 C 65 % 1012,4 hPa 0,0 l/m 5,4 km/h (1 Bft) W-SW 247 9,3 C 15,9 C
12.07.2012 20:36 15,8 C 66 % 1012,4 hPa 0,0 l/m 17,6 km/h (3 Bft) SW 225 9,5 C 15,8 C
12.07.2012 20:41 15,7 C 66 % 1012,6 hPa 0,0 l/m 25,6 km/h (4 Bft) W 270 9,4 C 15,7 C
12.07.2012 20:46 15,5 C 68 % 1012,6 hPa 0,0 l/m 15,5 km/h (3 Bft) SW 225 9,6 C 15,5 C
12.07.2012 20:51 15,3 C 69 % 1012,6 hPa 0,0 l/m 11,2 km/h (2 Bft) W-SW 247 9,6 C 15,3 C
12.07.2012 20:56 15,2 C 70 % 1012,6 hPa 0,0 l/m 10,8 km/h (2 Bft) W 270 9,8 C 15,2 C
12.07.2012 21:01 14,9 C 71 % 1012,7 hPa 0,0 l/m 12,6 km/h (3 Bft) W-SW 247 9,7 C 14,9 C
12.07.2012 21:06 14,9 C 72 % 1012,8 hPa 0,0 l/m 9,4 km/h (2 Bft) W-SW 247 9,9 C 14,9 C
12.07.2012 21:11 14,7 C 72 % 1012,7 hPa 0,0 l/m 12,6 km/h (3 Bft) SW 225 9,7 C 14,7 C
12.07.2012 21:16 14,5 C 72 % 1012,8 hPa 0,0 l/m 24,1 km/h (4 Bft) W 270 9,5 C 14,5 C
12.07.2012 21:21 14,4 C 73 % 1012,8 hPa 0,0 l/m 15,1 km/h (3 Bft) W 270 9,6 C 14,4 C
12.07.2012 21:26 14,3 C 74 % 1013,0 hPa 0,0 l/m 18,4 km/h (3 Bft) W 270 9,7 C 14,3 C
12.07.2012 21:31 14,1 C 74 % 1013,1 hPa 0,0 l/m 13,7 km/h (3 Bft) W-SW 247 9,5 C 14,1 C
12.07.2012 21:36 13,9 C 74 % 1013,2 hPa 0,0 l/m 11,9 km/h (2 Bft) W-SW 247 9,3 C 13,9 C
12.07.2012 21:41 13,8 C 75 % 1013,3 hPa 0,0 l/m 9,7 km/h (2 Bft) W 270 9,4 C 13,8 C
12.07.2012 21:46 13,7 C 76 % 1013,5 hPa 0,0 l/m 20,9 km/h (4 Bft) W 270 9,5 C 13,7 C
12.07.2012 21:51 13,6 C 76 % 1013,5 hPa 0,0 l/m 11,9 km/h (2 Bft) W 270 9,4 C 13,6 C
12.07.2012 21:56 13,5 C 77 % 1013,7 hPa 0,0 l/m 17,6 km/h (3 Bft) W-SW 247 9,5 C 13,5 C
12.07.2012 22:01 13,4 C 77 % 1013,5 hPa 0,0 l/m 10,8 km/h (2 Bft) W 270 9,5 C 13,4 C
12.07.2012 22:06 13,4 C 78 % 1013,5 hPa 0,0 l/m 11,2 km/h (2 Bft) W-SW 247 9,6 C 13,4 C
12.07.2012 22:11 13,3 C 78 % 1013,5 hPa 0,0 l/m 5,4 km/h (1 Bft) SW 225 9,5 C 13,3 C
12.07.2012 22:16 13,3 C 78 % 1013,7 hPa 0,0 l/m 14,4 km/h (3 Bft) W-SW 247 9,5 C 13,3 C
12.07.2012 22:21 13,3 C 78 % 1013,6 hPa 0,0 l/m 12,2 km/h (2 Bft) W 270 9,5 C 13,3 C
12.07.2012 22:26 13,4 C 79 % 1013,7 hPa 0,0 l/m 8,3 km/h (2 Bft) W 270 9,8 C 13,4 C
12.07.2012 22:31 13,4 C 79 % 1013,7 hPa 0,0 l/m 16,6 km/h (3 Bft) W 270 9,8 C 13,4 C
12.07.2012 22:36 13,4 C 79 % 1013,8 hPa 0,0 l/m 14,4 km/h (3 Bft) W 270 9,8 C 13,4 C
12.07.2012 22:41 13,5 C 79 % 1013,8 hPa 0,0 l/m 14,8 km/h (3 Bft) W 270 9,9 C 13,5 C
12.07.2012 22:46 13,6 C 80 % 1013,9 hPa 0,0 l/m 14,4 km/h (3 Bft) W-SW 247 10,2 C 13,6 C
12.07.2012 22:51 13,6 C 80 % 1013,8 hPa 0,0 l/m 10,8 km/h (2 Bft) W-SW 247 10,2 C 13,6 C
12.07.2012 22:56 13,6 C 80 % 1013,9 hPa 0,0 l/m 9,7 km/h (2 Bft) W-SW 247 10,2 C 13,6 C
12.07.2012 23:01 13,6 C 80 % 1013,9 hPa 0,0 l/m 3,6 km/h (1 Bft) W-SW 247 10,2 C 13,6 C
12.07.2012 23:06 13,8 C 80 % 1013,9 hPa 0,0 l/m 17,3 km/h (3 Bft) W-SW 247 10,4 C 13,8 C
12.07.2012 23:11 13,8 C 80 % 1013,9 hPa 0,0 l/m 18,7 km/h (3 Bft) W-SW 247 10,4 C 13,8 C
12.07.2012 23:16 13,8 C 80 % 1013,9 hPa 0,0 l/m 14,4 km/h (3 Bft) W-SW 247 10,4 C 13,8 C
12.07.2012 23:21 13,8 C 80 % 1013,9 hPa 0,0 l/m 8,6 km/h (2 Bft) W 270 10,4 C 13,8 C
12.07.2012 23:26 13,8 C 80 % 1013,9 hPa 0,0 l/m 12,6 km/h (3 Bft) W-SW 247 10,4 C 13,8 C
12.07.2012 23:31 13,8 C 80 % 1013,9 hPa 0,0 l/m 10,8 km/h (2 Bft) W-SW 247 10,4 C 13,8 C
12.07.2012 23:36 13,8 C 80 % 1013,8 hPa 0,0 l/m 11,2 km/h (2 Bft) W-SW 247 10,4 C 13,8 C
12.07.2012 23:41 13,8 C 80 % 1013,9 hPa 0,0 l/m 6,8 km/h (2 Bft) W-SW 247 10,4 C 13,8 C
12.07.2012 23:46 13,8 C 80 % 1014,0 hPa 0,0 l/m 11,5 km/h (2 Bft) W-SW 247 10,4 C 13,8 C
12.07.2012 23:51 13,6 C 80 % 1014,2 hPa 0,0 l/m 11,5 km/h (2 Bft) W-SW 247 10,2 C 13,6 C
12.07.2012 23:56 13,6 C 80 % 1013,9 hPa 0,0 l/m 13,7 km/h (3 Bft) W-SW 247 10,2 C 13,6 C
_ Min-Zeit 04:51 18:56 12:11 - 00:21 - - 19:01 04:51
Minimum _ 11,6 C 50 % 1010,1 hPa - 2,5 km/h (1 Bft) - - 8,5 C 11,6 C
_ Max-Zeit 12:16 05:06 23:51 13:11 09:31 - - 14:46 12:16
Maximum _ 20,9 C 85 % 1014,2 hPa 0,5 l/m 32,4 km/h
W-SW (5 Bft)
- - 12,8 C 20,9 C
Durchschnitt _ 15,6 C 72 % 1011,4 hPa #1,6 l/m 12,5 km/h (3 Bft) W-SW - 10,4 C 15,6 C
(c) by David Heller